sensor_id;sensor_type;location;lat;lon;timestamp;pressure;altitude;pressure_sealevel;temperature;humidity
61528;BME280;47395;42.032;-8.634;2023-04-30T00:00:10;101575.44;;;17.74;86.31
61528;BME280;47395;42.032;-8.634;2023-04-30T00:02:13;101570.97;;;17.74;86.26
61528;BME280;47395;42.032;-8.634;2023-04-30T00:04:14;101575.44;;;17.74;86.26
61528;BME280;47395;42.032;-8.634;2023-04-30T00:06:15;101568.50;;;17.71;86.08
61528;BME280;47395;42.032;-8.634;2023-04-30T00:08:16;101570.34;;;17.71;86.39
61528;BME280;47395;42.032;-8.634;2023-04-30T00:10:17;101561.56;;;17.69;86.58
61528;BME280;47395;42.032;-8.634;2023-04-30T00:12:18;101560.63;;;17.70;86.76
61528;BME280;47395;42.032;-8.634;2023-04-30T00:14:19;101555.59;;;17.65;86.66
61528;BME280;47395;42.032;-8.634;2023-04-30T00:16:20;101558.19;;;17.67;86.21
61528;BME280;47395;42.032;-8.634;2023-04-30T00:18:21;101548.34;;;17.67;86.18
61528;BME280;47395;42.032;-8.634;2023-04-30T00:20:22;101549.50;;;17.63;85.97
61528;BME280;47395;42.032;-8.634;2023-04-30T00:22:23;101546.19;;;17.59;86.17
61528;BME280;47395;42.032;-8.634;2023-04-30T00:24:24;101546.63;;;17.53;86.40
61528;BME280;47395;42.032;-8.634;2023-04-30T00:26:25;101547.00;;;17.47;86.45
61528;BME280;47395;42.032;-8.634;2023-04-30T00:28:26;101542.00;;;17.42;86.20
61528;BME280;47395;42.032;-8.634;2023-04-30T00:30:27;101538.00;;;17.35;86.16
61528;BME280;47395;42.032;-8.634;2023-04-30T00:32:28;101523.25;;;17.29;86.27
61528;BME280;47395;42.032;-8.634;2023-04-30T00:34:29;101527.06;;;17.25;86.47
61528;BME280;47395;42.032;-8.634;2023-04-30T00:36:30;101520.25;;;17.21;86.71
61528;BME280;47395;42.032;-8.634;2023-04-30T00:38:31;101516.06;;;17.17;86.62
61528;BME280;47395;42.032;-8.634;2023-04-30T00:40:34;101523.50;;;17.12;86.25
61528;BME280;47395;42.032;-8.634;2023-04-30T00:42:36;101515.72;;;17.08;86.22
61528;BME280;47395;42.032;-8.634;2023-04-30T00:44:38;101517.03;;;17.01;86.41
61528;BME280;47395;42.032;-8.634;2023-04-30T00:46:39;101518.19;;;16.97;86.11
61528;BME280;47395;42.032;-8.634;2023-04-30T00:48:40;101517.72;;;16.90;86.29
61528;BME280;47395;42.032;-8.634;2023-04-30T00:50:43;101516.47;;;16.81;87.55
61528;BME280;47395;42.032;-8.634;2023-04-30T00:52:46;101523.78;;;16.78;88.64
61528;BME280;47395;42.032;-8.634;2023-04-30T00:54:47;101513.25;;;16.76;89.33
61528;BME280;47395;42.032;-8.634;2023-04-30T00:56:51;101511.63;;;16.74;89.06
61528;BME280;47395;42.032;-8.634;2023-04-30T00:58:52;101507.38;;;16.71;88.98
61528;BME280;47395;42.032;-8.634;2023-04-30T01:00:56;101511.16;;;16.67;89.03
61528;BME280;47395;42.032;-8.634;2023-04-30T01:02:58;101508.50;;;16.67;88.68
61528;BME280;47395;42.032;-8.634;2023-04-30T01:05:01;101509.63;;;16.63;89.67
61528;BME280;47395;42.032;-8.634;2023-04-30T01:07:02;101496.56;;;16.60;89.25
61528;BME280;47395;42.032;-8.634;2023-04-30T01:09:04;101498.34;;;16.59;88.88
61528;BME280;47395;42.032;-8.634;2023-04-30T01:13:31;101498.81;;;16.51;89.12
61528;BME280;47395;42.032;-8.634;2023-04-30T01:15:41;101507.00;;;16.48;88.70
61528;BME280;47395;42.032;-8.634;2023-04-30T01:18:06;101492.00;;;16.47;88.58
61528;BME280;47395;42.032;-8.634;2023-04-30T01:20:10;101492.06;;;16.46;88.30
61528;BME280;47395;42.032;-8.634;2023-04-30T01:27:29;101483.06;;;16.34;87.83
61528;BME280;47395;42.032;-8.634;2023-04-30T01:29:33;101483.97;;;16.33;87.65
61528;BME280;47395;42.032;-8.634;2023-04-30T01:31:36;101485.16;;;16.28;88.06
61528;BME280;47395;42.032;-8.634;2023-04-30T01:33:36;101483.22;;;16.30;88.34
61528;BME280;47395;42.032;-8.634;2023-04-30T01:39:01;101478.22;;;16.40;88.86
61528;BME280;47395;42.032;-8.634;2023-04-30T01:41:21;101487.41;;;16.49;89.19
61528;BME280;47395;42.032;-8.634;2023-04-30T01:43:54;101483.34;;;16.58;88.81
61528;BME280;47395;42.032;-8.634;2023-04-30T01:46:27;101486.47;;;16.65;88.67
61528;BME280;47395;42.032;-8.634;2023-04-30T01:48:39;101483.22;;;16.74;87.81
61528;BME280;47395;42.032;-8.634;2023-04-30T01:50:52;101484.53;;;16.81;87.75
61528;BME280;47395;42.032;-8.634;2023-04-30T01:53:01;101486.91;;;16.86;87.56
61528;BME280;47395;42.032;-8.634;2023-04-30T01:55:35;101479.41;;;16.93;87.11
61528;BME280;47395;42.032;-8.634;2023-04-30T01:57:41;101486.03;;;17.00;86.35
61528;BME280;47395;42.032;-8.634;2023-04-30T01:59:44;101485.66;;;17.06;86.18
61528;BME280;47395;42.032;-8.634;2023-04-30T02:01:47;101468.53;;;17.11;86.47
61528;BME280;47395;42.032;-8.634;2023-04-30T02:03:48;101477.84;;;17.18;86.02
61528;BME280;47395;42.032;-8.634;2023-04-30T02:05:54;101473.19;;;17.21;86.37
61528;BME280;47395;42.032;-8.634;2023-04-30T02:07:55;101467.34;;;17.29;86.21
61528;BME280;47395;42.032;-8.634;2023-04-30T02:09:56;101467.06;;;17.34;86.21
61528;BME280;47395;42.032;-8.634;2023-04-30T02:12:00;101463.31;;;17.37;86.38
61528;BME280;47395;42.032;-8.634;2023-04-30T02:14:02;101463.13;;;17.40;86.46
61528;BME280;47395;42.032;-8.634;2023-04-30T02:16:03;101461.75;;;17.47;86.17
61528;BME280;47395;42.032;-8.634;2023-04-30T02:18:04;101459.53;;;17.54;86.36
61528;BME280;47395;42.032;-8.634;2023-04-30T02:20:07;101460.19;;;17.57;86.10
61528;BME280;47395;42.032;-8.634;2023-04-30T02:22:08;101455.41;;;17.63;86.05
61528;BME280;47395;42.032;-8.634;2023-04-30T02:24:09;101453.28;;;17.68;86.25
61528;BME280;47395;42.032;-8.634;2023-04-30T02:26:10;101449.56;;;17.70;86.12
61528;BME280;47395;42.032;-8.634;2023-04-30T02:28:12;101446.69;;;17.73;86.15
61528;BME280;47395;42.032;-8.634;2023-04-30T02:30:13;101443.69;;;17.78;85.68
61528;BME280;47395;42.032;-8.634;2023-04-30T02:32:13;101440.94;;;17.80;85.61
61528;BME280;47395;42.032;-8.634;2023-04-30T02:34:17;101449.78;;;17.80;85.48
61528;BME280;47395;42.032;-8.634;2023-04-30T02:36:18;101445.09;;;17.84;85.38
61528;BME280;47395;42.032;-8.634;2023-04-30T02:38:19;101446.06;;;17.83;85.24
61528;BME280;47395;42.032;-8.634;2023-04-30T02:40:20;101440.53;;;17.86;84.98
61528;BME280;47395;42.032;-8.634;2023-04-30T02:42:22;101437.88;;;17.86;84.50
61528;BME280;47395;42.032;-8.634;2023-04-30T02:44:23;101434.53;;;17.82;84.61
61528;BME280;47395;42.032;-8.634;2023-04-30T02:46:25;101434.34;;;17.85;84.56
61528;BME280;47395;42.032;-8.634;2023-04-30T02:48:27;101431.97;;;17.81;84.57
61528;BME280;47395;42.032;-8.634;2023-04-30T02:50:28;101430.91;;;17.70;84.41
61528;BME280;47395;42.032;-8.634;2023-04-30T02:52:29;101439.19;;;17.53;84.41
61528;BME280;47395;42.032;-8.634;2023-04-30T02:54:30;101436.72;;;17.49;84.79
61528;BME280;47395;42.032;-8.634;2023-04-30T02:56:31;101440.97;;;17.52;85.25
61528;BME280;47395;42.032;-8.634;2023-04-30T02:58:32;101446.13;;;17.55;85.08
61528;BME280;47395;42.032;-8.634;2023-04-30T03:00:33;101441.56;;;17.57;85.26
61528;BME280;47395;42.032;-8.634;2023-04-30T03:02:34;101445.91;;;17.58;85.27
61528;BME280;47395;42.032;-8.634;2023-04-30T03:04:36;101441.66;;;17.56;85.47
61528;BME280;47395;42.032;-8.634;2023-04-30T03:06:37;101439.28;;;17.51;85.31
61528;BME280;47395;42.032;-8.634;2023-04-30T03:08:38;101443.97;;;17.47;85.22
61528;BME280;47395;42.032;-8.634;2023-04-30T03:10:39;101440.75;;;17.42;85.42
61528;BME280;47395;42.032;-8.634;2023-04-30T03:12:43;101437.13;;;17.43;85.44
61528;BME280;47395;42.032;-8.634;2023-04-30T03:14:44;101432.69;;;17.44;85.17
61528;BME280;47395;42.032;-8.634;2023-04-30T03:16:45;101436.28;;;17.43;85.26
61528;BME280;47395;42.032;-8.634;2023-04-30T03:18:47;101437.34;;;17.40;85.15
61528;BME280;47395;42.032;-8.634;2023-04-30T03:20:51;101433.16;;;17.36;85.12
61528;BME280;47395;42.032;-8.634;2023-04-30T03:22:52;101429.13;;;17.30;85.45
61528;BME280;47395;42.032;-8.634;2023-04-30T03:24:53;101431.03;;;17.28;85.40
61528;BME280;47395;42.032;-8.634;2023-04-30T03:26:55;101424.19;;;17.24;85.70
61528;BME280;47395;42.032;-8.634;2023-04-30T03:28:56;101430.56;;;17.21;85.81
61528;BME280;47395;42.032;-8.634;2023-04-30T03:33:04;101420.97;;;17.19;86.42
61528;BME280;47395;42.032;-8.634;2023-04-30T03:35:13;101414.88;;;17.17;86.41
61528;BME280;47395;42.032;-8.634;2023-04-30T03:37:15;101415.31;;;17.11;87.22
61528;BME280;47395;42.032;-8.634;2023-04-30T03:39:16;101422.22;;;17.13;87.08
61528;BME280;47395;42.032;-8.634;2023-04-30T03:41:20;101420.34;;;17.15;87.02
61528;BME280;47395;42.032;-8.634;2023-04-30T03:43:22;101418.97;;;17.22;86.82
61528;BME280;47395;42.032;-8.634;2023-04-30T03:45:23;101420.38;;;17.28;86.42
61528;BME280;47395;42.032;-8.634;2023-04-30T03:47:24;101416.97;;;17.26;86.98
61528;BME280;47395;42.032;-8.634;2023-04-30T03:49:25;101421.88;;;17.32;86.57
61528;BME280;47395;42.032;-8.634;2023-04-30T03:51:26;101421.34;;;17.27;86.50
61528;BME280;47395;42.032;-8.634;2023-04-30T03:53:28;101422.28;;;17.26;86.21
61528;BME280;47395;42.032;-8.634;2023-04-30T03:55:28;101421.53;;;17.24;87.11
61528;BME280;47395;42.032;-8.634;2023-04-30T03:57:30;101420.88;;;17.20;86.72
61528;BME280;47395;42.032;-8.634;2023-04-30T03:59:31;101423.13;;;17.27;86.71
61528;BME280;47395;42.032;-8.634;2023-04-30T04:03:56;101425.28;;;17.34;86.49
61528;BME280;47395;42.032;-8.634;2023-04-30T04:05:57;101418.91;;;17.37;86.34
61528;BME280;47395;42.032;-8.634;2023-04-30T04:07:57;101428.81;;;17.35;86.08
61528;BME280;47395;42.032;-8.634;2023-04-30T04:09:58;101428.72;;;17.37;86.33
61528;BME280;47395;42.032;-8.634;2023-04-30T04:12:00;101432.97;;;17.39;86.01
61528;BME280;47395;42.032;-8.634;2023-04-30T04:14:02;101432.78;;;17.42;85.80
61528;BME280;47395;42.032;-8.634;2023-04-30T04:16:04;101426.47;;;17.43;84.96
61528;BME280;47395;42.032;-8.634;2023-04-30T04:18:05;101428.25;;;17.30;83.97
61528;BME280;47395;42.032;-8.634;2023-04-30T04:20:08;101427.81;;;17.23;83.78
61528;BME280;47395;42.032;-8.634;2023-04-30T04:22:11;101428.72;;;17.09;83.54
61528;BME280;47395;42.032;-8.634;2023-04-30T04:24:12;101437.84;;;17.05;84.01
61528;BME280;47395;42.032;-8.634;2023-04-30T04:26:13;101437.91;;;17.03;84.60
61528;BME280;47395;42.032;-8.634;2023-04-30T04:28:16;101428.72;;;16.94;84.92
61528;BME280;47395;42.032;-8.634;2023-04-30T04:30:17;101433.44;;;17.04;85.30
61528;BME280;47395;42.032;-8.634;2023-04-30T04:32:18;101430.16;;;17.00;84.94
61528;BME280;47395;42.032;-8.634;2023-04-30T04:34:19;101428.41;;;16.99;85.21
61528;BME280;47395;42.032;-8.634;2023-04-30T04:36:20;101426.53;;;17.01;85.08
61528;BME280;47395;42.032;-8.634;2023-04-30T04:38:22;101426.72;;;16.98;85.29
61528;BME280;47395;42.032;-8.634;2023-04-30T04:40:23;101426.16;;;16.93;85.71
61528;BME280;47395;42.032;-8.634;2023-04-30T04:42:24;101438.06;;;16.87;86.05
61528;BME280;47395;42.032;-8.634;2023-04-30T04:44:25;101435.28;;;16.89;86.31
61528;BME280;47395;42.032;-8.634;2023-04-30T04:46:26;101438.66;;;16.78;86.02
61528;BME280;47395;42.032;-8.634;2023-04-30T04:48:28;101443.69;;;16.68;85.36
61528;BME280;47395;42.032;-8.634;2023-04-30T04:50:29;101451.88;;;16.50;85.02
61528;BME280;47395;42.032;-8.634;2023-04-30T04:52:30;101450.94;;;16.37;86.32
61528;BME280;47395;42.032;-8.634;2023-04-30T04:54:32;101456.16;;;16.38;86.84
61528;BME280;47395;42.032;-8.634;2023-04-30T04:56:33;101453.81;;;16.34;87.14
61528;BME280;47395;42.032;-8.634;2023-04-30T04:58:34;101454.19;;;16.42;87.34
61528;BME280;47395;42.032;-8.634;2023-04-30T05:00:35;101453.72;;;16.35;86.90
61528;BME280;47395;42.032;-8.634;2023-04-30T05:02:37;101453.81;;;16.34;87.55
61528;BME280;47395;42.032;-8.634;2023-04-30T05:04:38;101460.34;;;16.28;88.02
61528;BME280;47395;42.032;-8.634;2023-04-30T05:06:38;101462.72;;;16.33;87.83
61528;BME280;47395;42.032;-8.634;2023-04-30T05:08:40;101465.19;;;16.36;87.77
61528;BME280;47395;42.032;-8.634;2023-04-30T05:10:41;101465.97;;;16.38;87.78
61528;BME280;47395;42.032;-8.634;2023-04-30T05:12:42;101464.81;;;16.42;87.77
61528;BME280;47395;42.032;-8.634;2023-04-30T05:14:42;101467.28;;;16.45;87.65
61528;BME280;47395;42.032;-8.634;2023-04-30T05:16:44;101464.63;;;16.45;87.40
61528;BME280;47395;42.032;-8.634;2023-04-30T05:18:45;101476.22;;;16.44;87.30
61528;BME280;47395;42.032;-8.634;2023-04-30T05:20:46;101475.47;;;16.42;87.24
61528;BME280;47395;42.032;-8.634;2023-04-30T05:22:46;101472.91;;;16.40;87.42
61528;BME280;47395;42.032;-8.634;2023-04-30T05:24:47;101471.63;;;16.31;87.36
61528;BME280;47395;42.032;-8.634;2023-04-30T05:26:48;101482.75;;;16.24;87.88
61528;BME280;47395;42.032;-8.634;2023-04-30T05:28:49;101479.53;;;16.18;87.83
61528;BME280;47395;42.032;-8.634;2023-04-30T05:30:51;101487.75;;;16.14;88.20
61528;BME280;47395;42.032;-8.634;2023-04-30T05:32:52;101487.75;;;16.14;88.46
61528;BME280;47395;42.032;-8.634;2023-04-30T05:34:53;101486.25;;;16.10;88.63
61528;BME280;47395;42.032;-8.634;2023-04-30T05:36:54;101489.69;;;16.12;88.67
61528;BME280;47395;42.032;-8.634;2023-04-30T05:38:56;101490.34;;;16.15;88.82
61528;BME280;47395;42.032;-8.634;2023-04-30T05:40:56;101487.41;;;16.20;88.75
61528;BME280;47395;42.032;-8.634;2023-04-30T05:42:57;101487.59;;;16.17;89.23
61528;BME280;47395;42.032;-8.634;2023-04-30T05:44:58;101487.84;;;16.12;89.69
61528;BME280;47395;42.032;-8.634;2023-04-30T05:46:59;101489.47;;;16.15;90.23
61528;BME280;47395;42.032;-8.634;2023-04-30T05:49:00;101494.53;;;16.20;90.18
61528;BME280;47395;42.032;-8.634;2023-04-30T05:51:01;101494.91;;;16.28;89.91
61528;BME280;47395;42.032;-8.634;2023-04-30T05:53:02;101497.28;;;16.33;89.71
61528;BME280;47395;42.032;-8.634;2023-04-30T05:55:03;101500.41;;;16.39;89.67
61528;BME280;47395;42.032;-8.634;2023-04-30T05:57:04;101500.72;;;16.49;88.85
61528;BME280;47395;42.032;-8.634;2023-04-30T05:59:05;101506.81;;;16.51;88.68
61528;BME280;47395;42.032;-8.634;2023-04-30T06:01:06;101506.50;;;16.56;88.04
61528;BME280;47395;42.032;-8.634;2023-04-30T06:03:10;101514.03;;;16.64;87.98
61528;BME280;47395;42.032;-8.634;2023-04-30T06:05:11;101518.09;;;16.69;87.68
61528;BME280;47395;42.032;-8.634;2023-04-30T06:07:12;101522.28;;;16.74;87.24
61528;BME280;47395;42.032;-8.634;2023-04-30T06:09:12;101521.78;;;16.81;87.13
61528;BME280;47395;42.032;-8.634;2023-04-30T06:11:13;101517.72;;;16.90;87.00
61528;BME280;47395;42.032;-8.634;2023-04-30T06:13:14;101528.09;;;16.95;86.60
61528;BME280;47395;42.032;-8.634;2023-04-30T06:15:16;101531.03;;;17.05;86.39
61528;BME280;47395;42.032;-8.634;2023-04-30T06:17:16;101527.22;;;17.09;86.11
61528;BME280;47395;42.032;-8.634;2023-04-30T06:19:17;101523.78;;;17.21;85.92
61528;BME280;47395;42.032;-8.634;2023-04-30T06:21:18;101515.00;;;17.34;85.21
61528;BME280;47395;42.032;-8.634;2023-04-30T06:23:19;101523.97;;;17.46;84.29
61528;BME280;47395;42.032;-8.634;2023-04-30T06:25:20;101528.19;;;17.63;83.63
61528;BME280;47395;42.032;-8.634;2023-04-30T06:27:21;101525.22;;;17.55;82.44
61528;BME280;47395;42.032;-8.634;2023-04-30T06:29:22;101518.94;;;17.69;82.11
61528;BME280;47395;42.032;-8.634;2023-04-30T06:31:23;101516.19;;;17.83;81.56
61528;BME280;47395;42.032;-8.634;2023-04-30T06:33:25;101514.75;;;18.05;80.36
61528;BME280;47395;42.032;-8.634;2023-04-30T06:35:25;101514.81;;;18.18;79.71
61528;BME280;47395;42.032;-8.634;2023-04-30T06:37:26;101521.09;;;18.30;78.62
61528;BME280;47395;42.032;-8.634;2023-04-30T06:39:27;101515.44;;;18.74;77.09
61528;BME280;47395;42.032;-8.634;2023-04-30T06:41:28;101516.97;;;19.40;74.52
61528;BME280;47395;42.032;-8.634;2023-04-30T06:43:29;101517.31;;;19.95;70.72
61528;BME280;47395;42.032;-8.634;2023-04-30T06:45:30;101529.84;;;20.54;68.84
61528;BME280;47395;42.032;-8.634;2023-04-30T06:47:31;101516.47;;;20.88;67.71
61528;BME280;47395;42.032;-8.634;2023-04-30T06:49:37;101524.63;;;20.75;67.32
61528;BME280;47395;42.032;-8.634;2023-04-30T06:51:39;101524.22;;;20.34;68.39
61528;BME280;47395;42.032;-8.634;2023-04-30T06:53:40;101524.34;;;19.85;69.99
61528;BME280;47395;42.032;-8.634;2023-04-30T06:55:43;101520.53;;;19.52;71.06
61528;BME280;47395;42.032;-8.634;2023-04-30T06:57:44;101520.72;;;19.37;72.45
61528;BME280;47395;42.032;-8.634;2023-04-30T06:59:45;101527.38;;;19.56;72.54
61528;BME280;47395;42.032;-8.634;2023-04-30T07:01:46;101527.72;;;19.51;72.19
61528;BME280;47395;42.032;-8.634;2023-04-30T07:03:47;101531.91;;;19.42;73.36
61528;BME280;47395;42.032;-8.634;2023-04-30T07:05:48;101530.38;;;19.27;74.27
61528;BME280;47395;42.032;-8.634;2023-04-30T07:07:49;101529.63;;;19.49;73.91
61528;BME280;47395;42.032;-8.634;2023-04-30T07:09:50;101539.94;;;19.67;73.34
61528;BME280;47395;42.032;-8.634;2023-04-30T07:11:51;101541.41;;;19.71;72.75
61528;BME280;47395;42.032;-8.634;2023-04-30T07:13:52;101538.75;;;19.47;73.54
61528;BME280;47395;42.032;-8.634;2023-04-30T07:15:53;101542.50;;;19.44;74.48
61528;BME280;47395;42.032;-8.634;2023-04-30T07:17:54;101540.50;;;19.35;74.74
61528;BME280;47395;42.032;-8.634;2023-04-30T07:19:55;101544.94;;;19.23;75.34
61528;BME280;47395;42.032;-8.634;2023-04-30T07:21:56;101542.16;;;19.24;75.46
61528;BME280;47395;42.032;-8.634;2023-04-30T07:23:57;101547.16;;;19.29;75.08
61528;BME280;47395;42.032;-8.634;2023-04-30T07:25:58;101546.69;;;19.11;75.83
61528;BME280;47395;42.032;-8.634;2023-04-30T07:27:59;101538.84;;;19.21;75.37
61528;BME280;47395;42.032;-8.634;2023-04-30T07:29:59;101537.25;;;19.42;75.37
61528;BME280;47395;42.032;-8.634;2023-04-30T07:32:00;101534.53;;;19.55;74.76
61528;BME280;47395;42.032;-8.634;2023-04-30T07:34:02;101537.75;;;19.48;75.29
61528;BME280;47395;42.032;-8.634;2023-04-30T07:36:03;101544.56;;;19.76;74.21
61528;BME280;47395;42.032;-8.634;2023-04-30T07:38:04;101537.94;;;19.82;73.79
61528;BME280;47395;42.032;-8.634;2023-04-30T07:40:06;101543.16;;;20.08;72.61
61528;BME280;47395;42.032;-8.634;2023-04-30T07:42:12;101546.13;;;20.28;72.45
61528;BME280;47395;42.032;-8.634;2023-04-30T07:44:13;101544.06;;;20.54;71.63
61528;BME280;47395;42.032;-8.634;2023-04-30T07:46:14;101542.03;;;20.92;69.80
61528;BME280;47395;42.032;-8.634;2023-04-30T07:48:14;101543.47;;;21.19;68.95
61528;BME280;47395;42.032;-8.634;2023-04-30T07:50:16;101539.81;;;21.53;67.21
61528;BME280;47395;42.032;-8.634;2023-04-30T07:52:18;101551.00;;;22.02;66.19
61528;BME280;47395;42.032;-8.634;2023-04-30T07:54:21;101533.56;;;22.18;64.53
61528;BME280;47395;42.032;-8.634;2023-04-30T07:56:22;101536.28;;;23.31;61.27
61528;BME280;47395;42.032;-8.634;2023-04-30T07:58:23;101544.06;;;24.71;57.52
61528;BME280;47395;42.032;-8.634;2023-04-30T08:00:24;101544.13;;;26.27;52.59
61528;BME280;47395;42.032;-8.634;2023-04-30T08:02:26;101545.16;;;27.04;50.19
61528;BME280;47395;42.032;-8.634;2023-04-30T08:04:26;101544.06;;;27.31;48.73
61528;BME280;47395;42.032;-8.634;2023-04-30T08:06:27;101543.25;;;28.71;45.74
61528;BME280;47395;42.032;-8.634;2023-04-30T08:08:28;101543.56;;;28.19;45.84
61528;BME280;47395;42.032;-8.634;2023-04-30T08:10:29;101552.63;;;28.51;45.91
61528;BME280;47395;42.032;-8.634;2023-04-30T08:12:31;101550.25;;;28.57;46.08
61528;BME280;47395;42.032;-8.634;2023-04-30T08:14:35;101552.72;;;28.10;44.84
61528;BME280;47395;42.032;-8.634;2023-04-30T08:16:36;101556.06;;;28.37;45.24
61528;BME280;47395;42.032;-8.634;2023-04-30T08:18:37;101561.00;;;28.33;44.75
61528;BME280;47395;42.032;-8.634;2023-04-30T08:20:44;101556.63;;;28.72;43.95
61528;BME280;47395;42.032;-8.634;2023-04-30T08:22:45;101559.47;;;28.31;43.95
61528;BME280;47395;42.032;-8.634;2023-04-30T08:24:46;101563.25;;;28.70;45.22
61528;BME280;47395;42.032;-8.634;2023-04-30T08:26:47;101557.34;;;29.06;43.60
61528;BME280;47395;42.032;-8.634;2023-04-30T08:28:48;101556.75;;;29.74;43.15
61528;BME280;47395;42.032;-8.634;2023-04-30T08:30:49;101563.00;;;29.28;42.88
61528;BME280;47395;42.032;-8.634;2023-04-30T08:32:49;101561.28;;;29.58;42.61
61528;BME280;47395;42.032;-8.634;2023-04-30T08:34:50;101554.53;;;30.46;40.33
61528;BME280;47395;42.032;-8.634;2023-04-30T08:36:51;101545.44;;;30.24;40.62
61528;BME280;47395;42.032;-8.634;2023-04-30T08:38:52;101556.75;;;30.58;40.11
61528;BME280;47395;42.032;-8.634;2023-04-30T08:41:04;101555.56;;;29.92;40.15
61528;BME280;47395;42.032;-8.634;2023-04-30T08:43:08;101552.19;;;30.28;40.07
61528;BME280;47395;42.032;-8.634;2023-04-30T08:45:11;101547.56;;;30.59;39.66
61528;BME280;47395;42.032;-8.634;2023-04-30T08:47:12;101545.38;;;29.47;41.17
61528;BME280;47395;42.032;-8.634;2023-04-30T08:49:14;101544.69;;;29.53;41.34
61528;BME280;47395;42.032;-8.634;2023-04-30T08:51:14;101545.28;;;29.64;41.63
61528;BME280;47395;42.032;-8.634;2023-04-30T08:53:16;101536.16;;;29.80;41.26
61528;BME280;47395;42.032;-8.634;2023-04-30T08:55:17;101534.91;;;30.21;41.02
61528;BME280;47395;42.032;-8.634;2023-04-30T08:57:18;101533.06;;;30.82;39.81
61528;BME280;47395;42.032;-8.634;2023-04-30T08:59:19;101534.84;;;31.11;39.72
61528;BME280;47395;42.032;-8.634;2023-04-30T09:01:20;101541.31;;;31.10;38.92
61528;BME280;47395;42.032;-8.634;2023-04-30T09:03:21;101536.50;;;30.91;39.42
61528;BME280;47395;42.032;-8.634;2023-04-30T09:05:22;101539.03;;;30.92;39.23
61528;BME280;47395;42.032;-8.634;2023-04-30T09:07:23;101543.13;;;31.03;38.49
61528;BME280;47395;42.032;-8.634;2023-04-30T09:09:28;101531.94;;;32.07;36.95
61528;BME280;47395;42.032;-8.634;2023-04-30T09:11:30;101547.00;;;32.03;36.87
61528;BME280;47395;42.032;-8.634;2023-04-30T09:13:39;101540.50;;;32.33;35.47
61528;BME280;47395;42.032;-8.634;2023-04-30T09:15:40;101550.41;;;33.65;33.09
61528;BME280;47395;42.032;-8.634;2023-04-30T09:17:41;101550.34;;;34.92;32.76
61528;BME280;47395;42.032;-8.634;2023-04-30T09:19:42;101539.25;;;34.73;32.49
61528;BME280;47395;42.032;-8.634;2023-04-30T09:21:43;101547.47;;;35.19;30.87
61528;BME280;47395;42.032;-8.634;2023-04-30T09:23:57;101545.28;;;35.86;30.64
61528;BME280;47395;42.032;-8.634;2023-04-30T09:25:58;101547.69;;;35.75;30.81
61528;BME280;47395;42.032;-8.634;2023-04-30T09:28:09;101551.28;;;36.20;28.84
61528;BME280;47395;42.032;-8.634;2023-04-30T09:30:29;101541.53;;;36.43;28.21
61528;BME280;47395;42.032;-8.634;2023-04-30T09:32:30;101545.13;;;37.35;28.65
61528;BME280;47395;42.032;-8.634;2023-04-30T09:34:34;101544.84;;;37.13;28.83
61528;BME280;47395;42.032;-8.634;2023-04-30T09:36:35;101545.34;;;36.91;27.22
61528;BME280;47395;42.032;-8.634;2023-04-30T09:38:36;101545.03;;;36.69;28.33
61528;BME280;47395;42.032;-8.634;2023-04-30T09:40:40;101541.91;;;36.28;29.97
61528;BME280;47395;42.032;-8.634;2023-04-30T09:42:57;101539.75;;;34.57;31.12
61528;BME280;47395;42.032;-8.634;2023-04-30T09:44:59;101534.72;;;34.47;30.06
61528;BME280;47395;42.032;-8.634;2023-04-30T09:47:00;101534.41;;;33.89;32.69
61528;BME280;47395;42.032;-8.634;2023-04-30T09:49:02;101535.16;;;33.02;34.22
61528;BME280;47395;42.032;-8.634;2023-04-30T09:51:03;101526.19;;;32.66;35.03
61528;BME280;47395;42.032;-8.634;2023-04-30T09:53:08;101523.88;;;33.45;33.65
61528;BME280;47395;42.032;-8.634;2023-04-30T09:55:09;101527.06;;;33.83;33.47
61528;BME280;47395;42.032;-8.634;2023-04-30T09:57:13;101523.91;;;33.72;32.31
61528;BME280;47395;42.032;-8.634;2023-04-30T09:59:15;101521.56;;;34.17;31.52
61528;BME280;47395;42.032;-8.634;2023-04-30T10:01:17;101516.56;;;34.59;30.80
61528;BME280;47395;42.032;-8.634;2023-04-30T10:03:19;101519.66;;;35.48;30.26
61528;BME280;47395;42.032;-8.634;2023-04-30T10:05:21;101514.50;;;35.84;28.02
61528;BME280;47395;42.032;-8.634;2023-04-30T10:07:24;101514.09;;;36.43;27.81
61528;BME280;47395;42.032;-8.634;2023-04-30T10:09:35;101503.09;;;36.24;28.51
61528;BME280;47395;42.032;-8.634;2023-04-30T10:11:39;101511.38;;;36.74;27.42
61528;BME280;47395;42.032;-8.634;2023-04-30T10:13:53;101513.25;;;37.34;26.68
61528;BME280;47395;42.032;-8.634;2023-04-30T10:15:58;101505.53;;;38.44;25.94
61528;BME280;47395;42.032;-8.634;2023-04-30T10:18:04;101507.31;;;38.50;25.57
61528;BME280;47395;42.032;-8.634;2023-04-30T10:20:08;101506.97;;;37.94;26.18
61528;BME280;47395;42.032;-8.634;2023-04-30T10:22:09;101502.78;;;38.44;25.59
61528;BME280;47395;42.032;-8.634;2023-04-30T10:24:13;101499.72;;;38.05;25.19
61528;BME280;47395;42.032;-8.634;2023-04-30T10:26:14;101500.25;;;38.13;25.16
61528;BME280;47395;42.032;-8.634;2023-04-30T10:28:16;101490.56;;;37.99;26.38
61528;BME280;47395;42.032;-8.634;2023-04-30T10:30:17;101487.34;;;37.78;25.50
61528;BME280;47395;42.032;-8.634;2023-04-30T10:32:19;101484.31;;;37.20;25.89
61528;BME280;47395;42.032;-8.634;2023-04-30T10:34:59;101486.53;;;37.11;25.19
61528;BME280;47395;42.032;-8.634;2023-04-30T10:37:15;101485.53;;;36.63;25.75
61528;BME280;47395;42.032;-8.634;2023-04-30T10:39:24;101475.75;;;35.54;27.92
61528;BME280;47395;42.032;-8.634;2023-04-30T10:41:28;101473.31;;;35.14;30.06
61528;BME280;47395;42.032;-8.634;2023-04-30T10:43:31;101475.56;;;34.92;30.11
61528;BME280;47395;42.032;-8.634;2023-04-30T10:45:36;101463.94;;;34.05;30.39
61528;BME280;47395;42.032;-8.634;2023-04-30T10:47:41;101463.53;;;33.88;31.54